sensor_id;sensor_type;location;lat;lon;timestamp;P1;durP1;ratioP1;P2;durP2;ratioP2
28427;SDS011;15662;49.128;8.520;2023-02-18T00:01:38;1.20;;;1.20;;
28427;SDS011;15662;49.128;8.520;2023-02-18T00:04:06;1.08;;;0.98;;
28427;SDS011;15662;49.128;8.520;2023-02-18T00:06:34;0.88;;;0.85;;
28427;SDS011;15662;49.128;8.520;2023-02-18T00:09:03;1.10;;;1.10;;
28427;SDS011;15662;49.128;8.520;2023-02-18T00:11:33;0.98;;;0.98;;
28427;SDS011;15662;49.128;8.520;2023-02-18T00:14:05;1.38;;;1.27;;
28427;SDS011;15662;49.128;8.520;2023-02-18T00:16:38;0.98;;;0.98;;
28427;SDS011;15662;49.128;8.520;2023-02-18T00:19:10;1.30;;;1.20;;
28427;SDS011;15662;49.128;8.520;2023-02-18T00:21:44;1.33;;;1.15;;
28427;SDS011;15662;49.128;8.520;2023-02-18T00:24:13;1.00;;;1.00;;
28427;SDS011;15662;49.128;8.520;2023-02-18T00:26:42;1.20;;;0.90;;
28427;SDS011;15662;49.128;8.520;2023-02-18T00:29:10;0.80;;;0.80;;
28427;SDS011;15662;49.128;8.520;2023-02-18T00:31:39;1.17;;;1.17;;
28427;SDS011;15662;49.128;8.520;2023-02-18T00:34:08;0.90;;;0.90;;
28427;SDS011;15662;49.128;8.520;2023-02-18T00:36:38;0.98;;;0.98;;
28427;SDS011;15662;49.128;8.520;2023-02-18T00:39:06;1.10;;;1.10;;
28427;SDS011;15662;49.128;8.520;2023-02-18T00:41:36;1.30;;;1.15;;
28427;SDS011;15662;49.128;8.520;2023-02-18T00:44:04;1.25;;;1.15;;
28427;SDS011;15662;49.128;8.520;2023-02-18T00:46:33;1.70;;;1.13;;
28427;SDS011;15662;49.128;8.520;2023-02-18T00:49:02;1.45;;;1.20;;
28427;SDS011;15662;49.128;8.520;2023-02-18T00:51:31;1.25;;;1.25;;
28427;SDS011;15662;49.128;8.520;2023-02-18T00:53:59;1.42;;;1.20;;
28427;SDS011;15662;49.128;8.520;2023-02-18T00:56:27;1.50;;;1.40;;
28427;SDS011;15662;49.128;8.520;2023-02-18T00:58:55;1.30;;;1.20;;
28427;SDS011;15662;49.128;8.520;2023-02-18T01:01:23;1.77;;;1.30;;
28427;SDS011;15662;49.128;8.520;2023-02-18T01:03:52;1.20;;;1.20;;
28427;SDS011;15662;49.128;8.520;2023-02-18T01:06:21;1.33;;;1.33;;
28427;SDS011;15662;49.128;8.520;2023-02-18T01:08:48;1.02;;;1.02;;
28427;SDS011;15662;49.128;8.520;2023-02-18T01:11:17;1.20;;;1.20;;
28427;SDS011;15662;49.128;8.520;2023-02-18T01:13:45;1.30;;;1.30;;
28427;SDS011;15662;49.128;8.520;2023-02-18T01:16:13;1.65;;;1.55;;
28427;SDS011;15662;49.128;8.520;2023-02-18T01:18:41;1.58;;;1.48;;
28427;SDS011;15662;49.128;8.520;2023-02-18T01:21:09;1.50;;;1.40;;
28427;SDS011;15662;49.128;8.520;2023-02-18T01:23:40;1.40;;;1.30;;
28427;SDS011;15662;49.128;8.520;2023-02-18T01:26:09;1.55;;;1.45;;
28427;SDS011;15662;49.128;8.520;2023-02-18T01:28:38;1.63;;;1.52;;
28427;SDS011;15662;49.128;8.520;2023-02-18T01:31:08;1.30;;;1.20;;
28427;SDS011;15662;49.128;8.520;2023-02-18T01:33:38;1.30;;;1.20;;
28427;SDS011;15662;49.128;8.520;2023-02-18T01:36:07;1.35;;;1.35;;
28427;SDS011;15662;49.128;8.520;2023-02-18T01:38:37;1.40;;;1.30;;
28427;SDS011;15662;49.128;8.520;2023-02-18T01:41:05;1.52;;;1.30;;
28427;SDS011;15662;49.128;8.520;2023-02-18T01:43:33;1.40;;;1.30;;
28427;SDS011;15662;49.128;8.520;2023-02-18T01:46:07;1.42;;;1.40;;
28427;SDS011;15662;49.128;8.520;2023-02-18T01:48:49;1.60;;;1.50;;
28427;SDS011;15662;49.128;8.520;2023-02-18T01:51:35;1.98;;;1.45;;
28427;SDS011;15662;49.128;8.520;2023-02-18T01:56:47;2.17;;;1.50;;
28427;SDS011;15662;49.128;8.520;2023-02-18T01:59:30;1.52;;;1.42;;
28427;SDS011;15662;49.128;8.520;2023-02-18T02:02:16;1.98;;;1.88;;
28427;SDS011;15662;49.128;8.520;2023-02-18T02:04:47;2.13;;;1.52;;
28427;SDS011;15662;49.128;8.520;2023-02-18T02:07:16;1.65;;;1.55;;
28427;SDS011;15662;49.128;8.520;2023-02-18T02:09:47;1.60;;;1.50;;
28427;SDS011;15662;49.128;8.520;2023-02-18T02:15:25;1.88;;;1.77;;
28427;SDS011;15662;49.128;8.520;2023-02-18T02:33:28;1.90;;;1.80;;
28427;SDS011;15662;49.128;8.520;2023-02-18T02:36:14;2.10;;;2.00;;
28427;SDS011;15662;49.128;8.520;2023-02-18T02:47:50;1.98;;;1.88;;
28427;SDS011;15662;49.128;8.520;2023-02-18T02:50:33;2.30;;;2.17;;
28427;SDS011;15662;49.128;8.520;2023-02-18T02:53:27;2.25;;;2.03;;
28427;SDS011;15662;49.128;8.520;2023-02-18T02:56:23;2.40;;;2.20;;
28427;SDS011;15662;49.128;8.520;2023-02-18T02:58:58;3.05;;;2.20;;
28427;SDS011;15662;49.128;8.520;2023-02-18T03:13:06;2.40;;;2.30;;
28427;SDS011;15662;49.128;8.520;2023-02-18T03:18:34;2.60;;;2.40;;
28427;SDS011;15662;49.128;8.520;2023-02-18T03:26:51;2.70;;;2.50;;
28427;SDS011;15662;49.128;8.520;2023-02-18T03:29:25;2.70;;;2.50;;
28427;SDS011;15662;49.128;8.520;2023-02-18T03:31:56;2.70;;;2.30;;
28427;SDS011;15662;49.128;8.520;2023-02-18T03:34:29;2.45;;;2.25;;
28427;SDS011;15662;49.128;8.520;2023-02-18T03:37:04;2.60;;;2.30;;
28427;SDS011;15662;49.128;8.520;2023-02-18T03:39:35;2.40;;;2.20;;
28427;SDS011;15662;49.128;8.520;2023-02-18T03:42:05;2.55;;;2.35;;
28427;SDS011;15662;49.128;8.520;2023-02-18T03:44:34;2.15;;;2.05;;
28427;SDS011;15662;49.128;8.520;2023-02-18T03:47:02;2.65;;;2.45;;
28427;SDS011;15662;49.128;8.520;2023-02-18T03:49:30;2.50;;;2.30;;
28427;SDS011;15662;49.128;8.520;2023-02-18T03:51:59;2.33;;;2.17;;
28427;SDS011;15662;49.128;8.520;2023-02-18T03:54:27;2.60;;;2.40;;
28427;SDS011;15662;49.128;8.520;2023-02-18T03:56:55;2.60;;;2.40;;
28427;SDS011;15662;49.128;8.520;2023-02-18T03:59:23;2.45;;;2.30;;
28427;SDS011;15662;49.128;8.520;2023-02-18T04:01:51;2.55;;;2.35;;
28427;SDS011;15662;49.128;8.520;2023-02-18T04:04:19;2.70;;;2.50;;
28427;SDS011;15662;49.128;8.520;2023-02-18T04:06:46;2.97;;;2.78;;
28427;SDS011;15662;49.128;8.520;2023-02-18T04:09:14;2.47;;;2.28;;
28427;SDS011;15662;49.128;8.520;2023-02-18T04:11:42;2.33;;;2.13;;
28427;SDS011;15662;49.128;8.520;2023-02-18T04:14:09;2.47;;;2.30;;
28427;SDS011;15662;49.128;8.520;2023-02-18T04:16:40;2.70;;;2.50;;
28427;SDS011;15662;49.128;8.520;2023-02-18T04:19:08;2.40;;;2.20;;
28427;SDS011;15662;49.128;8.520;2023-02-18T04:21:36;2.60;;;2.40;;
28427;SDS011;15662;49.128;8.520;2023-02-18T04:24:04;2.55;;;2.35;;
28427;SDS011;15662;49.128;8.520;2023-02-18T04:26:32;2.35;;;2.25;;
28427;SDS011;15662;49.128;8.520;2023-02-18T04:29:00;2.25;;;2.05;;
28427;SDS011;15662;49.128;8.520;2023-02-18T04:31:28;2.45;;;2.30;;
28427;SDS011;15662;49.128;8.520;2023-02-18T04:33:56;2.20;;;2.10;;
28427;SDS011;15662;49.128;8.520;2023-02-18T04:36:24;2.38;;;2.17;;
28427;SDS011;15662;49.128;8.520;2023-02-18T04:38:52;2.67;;;2.40;;
28427;SDS011;15662;49.128;8.520;2023-02-18T04:41:19;2.40;;;2.20;;
28427;SDS011;15662;49.128;8.520;2023-02-18T04:43:47;2.28;;;2.08;;
28427;SDS011;15662;49.128;8.520;2023-02-18T04:46:15;2.60;;;2.38;;
28427;SDS011;15662;49.128;8.520;2023-02-18T04:48:43;1.95;;;1.85;;
28427;SDS011;15662;49.128;8.520;2023-02-18T04:51:11;2.35;;;2.08;;
28427;SDS011;15662;49.128;8.520;2023-02-18T04:53:39;2.50;;;2.22;;
28427;SDS011;15662;49.128;8.520;2023-02-18T04:56:07;2.78;;;2.10;;
28427;SDS011;15662;49.128;8.520;2023-02-18T04:58:35;2.97;;;2.70;;
28427;SDS011;15662;49.128;8.520;2023-02-18T05:01:03;2.40;;;2.20;;
28427;SDS011;15662;49.128;8.520;2023-02-18T05:03:31;2.50;;;2.28;;
28427;SDS011;15662;49.128;8.520;2023-02-18T05:05:59;4.18;;;2.35;;
28427;SDS011;15662;49.128;8.520;2023-02-18T05:08:27;2.70;;;2.50;;
28427;SDS011;15662;49.128;8.520;2023-02-18T05:10:55;2.40;;;2.20;;
28427;SDS011;15662;49.128;8.520;2023-02-18T05:13:22;2.50;;;2.28;;
28427;SDS011;15662;49.128;8.520;2023-02-18T05:15:50;2.38;;;2.17;;
28427;SDS011;15662;49.128;8.520;2023-02-18T05:18:18;2.63;;;2.30;;
28427;SDS011;15662;49.128;8.520;2023-02-18T05:20:46;2.38;;;2.10;;
28427;SDS011;15662;49.128;8.520;2023-02-18T05:23:14;2.22;;;2.03;;
28427;SDS011;15662;49.128;8.520;2023-02-18T05:25:42;2.60;;;2.15;;
28427;SDS011;15662;49.128;8.520;2023-02-18T05:28:10;2.03;;;1.90;;
28427;SDS011;15662;49.128;8.520;2023-02-18T05:30:38;2.38;;;2.17;;
28427;SDS011;15662;49.128;8.520;2023-02-18T05:33:06;3.33;;;2.08;;
28427;SDS011;15662;49.128;8.520;2023-02-18T05:35:34;2.20;;;2.00;;
28427;SDS011;15662;49.128;8.520;2023-02-18T05:38:01;2.08;;;1.88;;
28427;SDS011;15662;49.128;8.520;2023-02-18T05:40:29;2.05;;;1.85;;
28427;SDS011;15662;49.128;8.520;2023-02-18T05:42:57;2.47;;;2.28;;
28427;SDS011;15662;49.128;8.520;2023-02-18T05:45:25;2.95;;;1.98;;
28427;SDS011;15662;49.128;8.520;2023-02-18T05:47:53;2.00;;;1.90;;
28427;SDS011;15662;49.128;8.520;2023-02-18T05:50:21;2.10;;;2.00;;
28427;SDS011;15662;49.128;8.520;2023-02-18T05:52:49;2.10;;;1.90;;
28427;SDS011;15662;49.128;8.520;2023-02-18T05:55:17;2.10;;;2.00;;
28427;SDS011;15662;49.128;8.520;2023-02-18T05:57:45;2.22;;;2.08;;
28427;SDS011;15662;49.128;8.520;2023-02-18T06:00:13;1.92;;;1.83;;
28427;SDS011;15662;49.128;8.520;2023-02-18T06:02:41;1.88;;;1.77;;
28427;SDS011;15662;49.128;8.520;2023-02-18T06:05:09;2.03;;;1.92;;
28427;SDS011;15662;49.128;8.520;2023-02-18T06:07:37;2.20;;;2.00;;
28427;SDS011;15662;49.128;8.520;2023-02-18T06:10:05;2.20;;;2.10;;
28427;SDS011;15662;49.128;8.520;2023-02-18T06:12:33;2.10;;;1.90;;
28427;SDS011;15662;49.128;8.520;2023-02-18T06:15:01;2.13;;;1.92;;
28427;SDS011;15662;49.128;8.520;2023-02-18T06:17:30;2.30;;;2.10;;
28427;SDS011;15662;49.128;8.520;2023-02-18T06:19:58;2.10;;;2.00;;
28427;SDS011;15662;49.128;8.520;2023-02-18T06:22:25;1.90;;;1.80;;
28427;SDS011;15662;49.128;8.520;2023-02-18T06:24:53;2.15;;;2.05;;
28427;SDS011;15662;49.128;8.520;2023-02-18T06:27:21;2.40;;;1.98;;
28427;SDS011;15662;49.128;8.520;2023-02-18T06:29:49;1.90;;;1.80;;
28427;SDS011;15662;49.128;8.520;2023-02-18T06:32:17;1.90;;;1.80;;
28427;SDS011;15662;49.128;8.520;2023-02-18T06:34:45;3.53;;;2.17;;
28427;SDS011;15662;49.128;8.520;2023-02-18T06:37:13;1.90;;;1.80;;
28427;SDS011;15662;49.128;8.520;2023-02-18T06:39:40;2.22;;;2.05;;
28427;SDS011;15662;49.128;8.520;2023-02-18T06:42:08;2.20;;;2.00;;
28427;SDS011;15662;49.128;8.520;2023-02-18T06:44:36;2.28;;;2.08;;
28427;SDS011;15662;49.128;8.520;2023-02-18T06:47:04;2.00;;;1.90;;
28427;SDS011;15662;49.128;8.520;2023-02-18T06:49:33;2.75;;;1.92;;
28427;SDS011;15662;49.128;8.520;2023-02-18T06:52:02;1.90;;;1.80;;
28427;SDS011;15662;49.128;8.520;2023-02-18T06:54:31;1.92;;;1.80;;
28427;SDS011;15662;49.128;8.520;2023-02-18T06:57:00;2.05;;;1.90;;
28427;SDS011;15662;49.128;8.520;2023-02-18T06:59:28;2.08;;;1.88;;
28427;SDS011;15662;49.128;8.520;2023-02-18T07:01:56;1.90;;;1.80;;
28427;SDS011;15662;49.128;8.520;2023-02-18T07:04:23;2.75;;;1.70;;
28427;SDS011;15662;49.128;8.520;2023-02-18T07:06:51;2.72;;;1.92;;
28427;SDS011;15662;49.128;8.520;2023-02-18T07:09:19;2.35;;;1.80;;
28427;SDS011;15662;49.128;8.520;2023-02-18T07:11:47;1.80;;;1.70;;
28427;SDS011;15662;49.128;8.520;2023-02-18T07:14:15;1.60;;;1.50;;
28427;SDS011;15662;49.128;8.520;2023-02-18T07:16:42;1.67;;;1.58;;
28427;SDS011;15662;49.128;8.520;2023-02-18T07:19:10;1.67;;;1.58;;
28427;SDS011;15662;49.128;8.520;2023-02-18T07:21:41;1.70;;;1.60;;
28427;SDS011;15662;49.128;8.520;2023-02-18T07:24:09;2.10;;;2.00;;
28427;SDS011;15662;49.128;8.520;2023-02-18T07:26:37;2.25;;;1.90;;
28427;SDS011;15662;49.128;8.520;2023-02-18T07:29:05;1.90;;;1.80;;
28427;SDS011;15662;49.128;8.520;2023-02-18T07:31:33;1.90;;;1.70;;
28427;SDS011;15662;49.128;8.520;2023-02-18T07:34:01;2.90;;;1.80;;
28427;SDS011;15662;49.128;8.520;2023-02-18T07:36:28;1.70;;;1.60;;
28427;SDS011;15662;49.128;8.520;2023-02-18T07:38:56;4.00;;;2.03;;
28427;SDS011;15662;49.128;8.520;2023-02-18T07:41:25;1.75;;;1.65;;
28427;SDS011;15662;49.128;8.520;2023-02-18T07:43:52;2.55;;;1.55;;
28427;SDS011;15662;49.128;8.520;2023-02-18T07:46:20;1.98;;;1.67;;
28427;SDS011;15662;49.128;8.520;2023-02-18T07:48:48;2.42;;;1.90;;
28427;SDS011;15662;49.128;8.520;2023-02-18T07:51:16;1.60;;;1.50;;
28427;SDS011;15662;49.128;8.520;2023-02-18T07:53:44;2.38;;;1.67;;
28427;SDS011;15662;49.128;8.520;2023-02-18T07:56:11;2.17;;;2.03;;
28427;SDS011;15662;49.128;8.520;2023-02-18T07:58:39;1.95;;;1.75;;
28427;SDS011;15662;49.128;8.520;2023-02-18T08:01:08;1.70;;;1.60;;
28427;SDS011;15662;49.128;8.520;2023-02-18T08:06:06;2.13;;;1.60;;
28427;SDS011;15662;49.128;8.520;2023-02-18T08:08:45;3.00;;;2.00;;
28427;SDS011;15662;49.128;8.520;2023-02-18T08:11:13;1.80;;;1.67;;
28427;SDS011;15662;49.128;8.520;2023-02-18T08:13:46;1.95;;;1.63;;
28427;SDS011;15662;49.128;8.520;2023-02-18T08:16:15;1.80;;;1.70;;
28427;SDS011;15662;49.128;8.520;2023-02-18T08:18:45;2.40;;;1.83;;
28427;SDS011;15662;49.128;8.520;2023-02-18T08:21:15;3.13;;;2.38;;
28427;SDS011;15662;49.128;8.520;2023-02-18T08:23:44;3.65;;;2.20;;
28427;SDS011;15662;49.128;8.520;2023-02-18T08:26:12;3.22;;;1.98;;
28427;SDS011;15662;49.128;8.520;2023-02-18T08:28:44;1.70;;;1.60;;
28427;SDS011;15662;49.128;8.520;2023-02-18T08:31:21;1.63;;;1.52;;
28427;SDS011;15662;49.128;8.520;2023-02-18T08:33:52;1.95;;;1.50;;
28427;SDS011;15662;49.128;8.520;2023-02-18T08:36:22;1.80;;;1.70;;
28427;SDS011;15662;49.128;8.520;2023-02-18T08:38:50;1.50;;;1.40;;
28427;SDS011;15662;49.128;8.520;2023-02-18T08:41:18;1.63;;;1.50;;
28427;SDS011;15662;49.128;8.520;2023-02-18T08:43:46;1.63;;;1.52;;
28427;SDS011;15662;49.128;8.520;2023-02-18T08:46:14;1.70;;;1.60;;
28427;SDS011;15662;49.128;8.520;2023-02-18T08:48:53;1.58;;;1.48;;
28427;SDS011;15662;49.128;8.520;2023-02-18T08:51:21;2.85;;;1.52;;
28427;SDS011;15662;49.128;8.520;2023-02-18T08:54:09;1.88;;;1.77;;
28427;SDS011;15662;49.128;8.520;2023-02-18T08:56:37;3.95;;;1.95;;
28427;SDS011;15662;49.128;8.520;2023-02-18T08:59:25;3.97;;;2.90;;
28427;SDS011;15662;49.128;8.520;2023-02-18T09:02:13;3.50;;;2.53;;
28427;SDS011;15662;49.128;8.520;2023-02-18T09:04:41;3.50;;;2.28;;
28427;SDS011;15662;49.128;8.520;2023-02-18T09:07:09;2.08;;;1.98;;
28427;SDS011;15662;49.128;8.520;2023-02-18T09:09:37;1.88;;;1.63;;
28427;SDS011;15662;49.128;8.520;2023-02-18T09:12:05;2.17;;;1.58;;
28427;SDS011;15662;49.128;8.520;2023-02-18T09:14:33;4.63;;;2.17;;
28427;SDS011;15662;49.128;8.520;2023-02-18T09:17:01;1.98;;;1.70;;
28427;SDS011;15662;49.128;8.520;2023-02-18T09:19:29;7.50;;;1.85;;
28427;SDS011;15662;49.128;8.520;2023-02-18T09:21:57;5.30;;;2.20;;
28427;SDS011;15662;49.128;8.520;2023-02-18T09:24:27;1.80;;;1.70;;
28427;SDS011;15662;49.128;8.520;2023-02-18T09:26:54;1.98;;;1.40;;
28427;SDS011;15662;49.128;8.520;2023-02-18T09:29:22;1.73;;;1.63;;
28427;SDS011;15662;49.128;8.520;2023-02-18T09:31:50;2.55;;;1.40;;
28427;SDS011;15662;49.128;8.520;2023-02-18T09:34:18;1.70;;;1.52;;
28427;SDS011;15662;49.128;8.520;2023-02-18T09:36:46;1.80;;;1.30;;
28427;SDS011;15662;49.128;8.520;2023-02-18T09:39:14;1.17;;;1.17;;
28427;SDS011;15662;49.128;8.520;2023-02-18T09:41:48;2.10;;;1.40;;
28427;SDS011;15662;49.128;8.520;2023-02-18T09:44:21;1.38;;;1.30;;
28427;SDS011;15662;49.128;8.520;2023-02-18T09:47:10;2.10;;;1.83;;
28427;SDS011;15662;49.128;8.520;2023-02-18T09:49:56;1.73;;;1.63;;
28427;SDS011;15662;49.128;8.520;2023-02-18T09:52:32;1.40;;;1.30;;
28427;SDS011;15662;49.128;8.520;2023-02-18T09:57:51;2.95;;;1.63;;
28427;SDS011;15662;49.128;8.520;2023-02-18T10:00:38;4.95;;;1.80;;
28427;SDS011;15662;49.128;8.520;2023-02-18T10:03:19;1.50;;;1.40;;
28427;SDS011;15662;49.128;8.520;2023-02-18T10:08:28;3.42;;;1.60;;
28427;SDS011;15662;49.128;8.520;2023-02-18T10:14:08;1.38;;;1.33;;
28427;SDS011;15662;49.128;8.520;2023-02-18T10:24:32;2.67;;;1.45;;
28427;SDS011;15662;49.128;8.520;2023-02-18T10:27:12;1.50;;;1.40;;
28427;SDS011;15662;49.128;8.520;2023-02-18T10:29:51;2.60;;;1.50;;
28427;SDS011;15662;49.128;8.520;2023-02-18T10:32:26;1.50;;;1.40;;
28427;SDS011;15662;49.128;8.520;2023-02-18T10:35:21;1.40;;;1.30;;
28427;SDS011;15662;49.128;8.520;2023-02-18T10:50:54;1.45;;;1.35;;
28427;SDS011;15662;49.128;8.520;2023-02-18T10:53:29;4.68;;;1.88;;
28427;SDS011;15662;49.128;8.520;2023-02-18T10:56:05;2.03;;;1.90;;
28427;SDS011;15662;49.128;8.520;2023-02-18T10:58:35;1.17;;;1.17;;
28427;SDS011;15662;49.128;8.520;2023-02-18T11:01:12;2.45;;;1.60;;
28427;SDS011;15662;49.128;8.520;2023-02-18T11:06:26;6.03;;;2.33;;
28427;SDS011;15662;49.128;8.520;2023-02-18T11:09:12;1.85;;;1.60;;
28427;SDS011;15662;49.128;8.520;2023-02-18T11:12:01;4.68;;;1.90;;
28427;SDS011;15662;49.128;8.520;2023-02-18T11:14:44;10.23;;;2.70;;
28427;SDS011;15662;49.128;8.520;2023-02-18T11:17:17;1.60;;;1.50;;
28427;SDS011;15662;49.128;8.520;2023-02-18T11:19:57;1.23;;;1.23;;
28427;SDS011;15662;49.128;8.520;2023-02-18T11:22:31;1.67;;;1.10;;
28427;SDS011;15662;49.128;8.520;2023-02-18T11:25:23;2.10;;;1.60;;
28427;SDS011;15662;49.128;8.520;2023-02-18T11:27:54;4.57;;;1.70;;
28427;SDS011;15662;49.128;8.520;2023-02-18T11:30:30;3.85;;;1.77;;
28427;SDS011;15662;49.128;8.520;2023-02-18T11:35:35;1.58;;;1.48;;
28427;SDS011;15662;49.128;8.520;2023-02-18T11:38:13;1.60;;;1.33;;
28427;SDS011;15662;49.128;8.520;2023-02-18T11:41:05;1.50;;;1.40;;
28427;SDS011;15662;49.128;8.520;2023-02-18T11:43:36;1.70;;;1.60;;
28427;SDS011;15662;49.128;8.520;2023-02-18T11:46:21;2.13;;;1.30;;
28427;SDS011;15662;49.128;8.520;2023-02-18T11:48:53;1.52;;;1.42;;
28427;SDS011;15662;49.128;8.520;2023-02-18T11:51:23;1.63;;;1.50;;
28427;SDS011;15662;49.128;8.520;2023-02-18T11:54:00;1.60;;;1.50;;
28427;SDS011;15662;49.128;8.520;2023-02-18T11:56:32;2.80;;;1.55;;
28427;SDS011;15662;49.128;8.520;2023-02-18T11:59:02;1.98;;;1.60;;
28427;SDS011;15662;49.128;8.520;2023-02-18T12:01:40;1.70;;;1.60;;
28427;SDS011;15662;49.128;8.520;2023-02-18T12:04:32;1.50;;;1.40;;
28427;SDS011;15662;49.128;8.520;2023-02-18T12:07:19;1.50;;;1.40;;
28427;SDS011;15662;49.128;8.520;2023-02-18T12:09:59;1.52;;;1.42;;
28427;SDS011;15662;49.128;8.520;2023-02-18T12:12:49;1.40;;;1.30;;
28427;SDS011;15662;49.128;8.520;2023-02-18T12:21:27;1.60;;;1.50;;
28427;SDS011;15662;49.128;8.520;2023-02-18T12:53:44;1.70;;;1.40;;
28427;SDS011;15662;49.128;8.520;2023-02-18T13:16:38;3.13;;;1.20;;
28427;SDS011;15662;49.128;8.520;2023-02-18T13:22:11;1.40;;;1.27;;
28427;SDS011;15662;49.128;8.520;2023-02-18T13:24:43;1.00;;;1.00;;
28427;SDS011;15662;49.128;8.520;2023-02-18T13:36:05;1.33;;;1.02;;
28427;SDS011;15662;49.128;8.520;2023-02-18T13:39:00;1.00;;;1.00;;
28427;SDS011;15662;49.128;8.520;2023-02-18T13:41:29;0.90;;;0.90;;
28427;SDS011;15662;49.128;8.520;2023-02-18T13:45:00;1.55;;;0.90;;
28427;SDS011;15662;49.128;8.520;2023-02-18T13:46:55;1.17;;;0.80;;
28427;SDS011;15662;49.128;8.520;2023-02-18T13:49:26;1.88;;;0.90;;
28427;SDS011;15662;49.128;8.520;2023-02-18T13:52:01;0.80;;;0.80;;
28427;SDS011;15662;49.128;8.520;2023-02-18T13:54:37;0.80;;;0.80;;
28427;SDS011;15662;49.128;8.520;2023-02-18T13:57:20;0.90;;;0.90;;
28427;SDS011;15662;49.128;8.520;2023-02-18T13:59:57;1.23;;;1.13;;
28427;SDS011;15662;49.128;8.520;2023-02-18T14:02:34;2.35;;;1.45;;
28427;SDS011;15662;49.128;8.520;2023-02-18T14:10:45;1.42;;;1.33;;
28427;SDS011;15662;49.128;8.520;2023-02-18T14:37:42;2.55;;;2.20;;
28427;SDS011;15662;49.128;8.520;2023-02-18T14:50:29;2.03;;;1.90;;
28427;SDS011;15662;49.128;8.520;2023-02-18T14:53:05;2.08;;;1.85;;
28427;SDS011;15662;49.128;8.520;2023-02-18T14:56:04;2.13;;;1.92;;
28427;SDS011;15662;49.128;8.520;2023-02-18T14:58:40;2.33;;;2.13;;
28427;SDS011;15662;49.128;8.520;2023-02-18T15:01:25;2.20;;;2.00;;
28427;SDS011;15662;49.128;8.520;2023-02-18T15:03:59;1.80;;;1.70;;
28427;SDS011;15662;49.128;8.520;2023-02-18T15:06:30;2.15;;;1.80;;
28427;SDS011;15662;49.128;8.520;2023-02-18T15:09:14;1.60;;;1.50;;
28427;SDS011;15662;49.128;8.520;2023-02-18T15:14:34;1.63;;;1.52;;
28427;SDS011;15662;49.128;8.520;2023-02-18T15:17:06;1.52;;;1.42;;
28427;SDS011;15662;49.128;8.520;2023-02-18T15:19:51;2.08;;;1.70;;
28427;SDS011;15662;49.128;8.520;2023-02-18T15:22:25;1.52;;;1.42;;
28427;SDS011;15662;49.128;8.520;2023-02-18T15:24:57;2.35;;;1.40;;
28427;SDS011;15662;49.128;8.520;2023-02-18T15:27:30;1.77;;;1.50;;
28427;SDS011;15662;49.128;8.520;2023-02-18T15:32:54;2.97;;;2.78;;
28427;SDS011;15662;49.128;8.520;2023-02-18T15:35:26;2.88;;;2.67;;
28427;SDS011;15662;49.128;8.520;2023-02-18T15:37:58;3.17;;;2.88;;
28427;SDS011;15662;49.128;8.520;2023-02-18T15:40:31;3.58;;;3.28;;
28427;SDS011;15662;49.128;8.520;2023-02-18T15:43:04;3.25;;;2.95;;
28427;SDS011;15662;49.128;8.520;2023-02-18T15:45:34;4.38;;;2.70;;
28427;SDS011;15662;49.128;8.520;2023-02-18T15:48:12;3.00;;;2.70;;
28427;SDS011;15662;49.128;8.520;2023-02-18T15:51:04;2.33;;;2.17;;
28427;SDS011;15662;49.128;8.520;2023-02-18T15:53:44;2.00;;;1.90;;
28427;SDS011;15662;49.128;8.520;2023-02-18T15:59:18;1.80;;;1.70;;
28427;SDS011;15662;49.128;8.520;2023-02-18T16:04:39;2.13;;;1.67;;
28427;SDS011;15662;49.128;8.520;2023-02-18T16:07:31;1.80;;;1.70;;
28427;SDS011;15662;49.128;8.520;2023-02-18T16:10:22;1.55;;;1.45;;
28427;SDS011;15662;49.128;8.520;2023-02-18T16:13:03;1.58;;;1.48;;
28427;SDS011;15662;49.128;8.520;2023-02-18T16:15:36;2.30;;;1.55;;
28427;SDS011;15662;49.128;8.520;2023-02-18T16:18:18;1.75;;;1.65;;
28427;SDS011;15662;49.128;8.520;2023-02-18T16:23:45;2.10;;;1.90;;
28427;SDS011;15662;49.128;8.520;2023-02-18T16:28:58;2.10;;;1.57;;
28427;SDS011;15662;49.128;8.520;2023-02-18T16:32:00;2.65;;;1.45;;
28427;SDS011;15662;49.128;8.520;2023-02-18T16:34:28;1.60;;;1.50;;
28427;SDS011;15662;49.128;8.520;2023-02-18T16:36:56;1.58;;;1.48;;
28427;SDS011;15662;49.128;8.520;2023-02-18T16:39:42;1.73;;;1.63;;
28427;SDS011;15662;49.128;8.520;2023-02-18T16:42:11;2.83;;;1.80;;
28427;SDS011;15662;49.128;8.520;2023-02-18T16:44:39;1.85;;;1.45;;
28427;SDS011;15662;49.128;8.520;2023-02-18T16:47:09;1.50;;;1.40;;
28427;SDS011;15662;49.128;8.520;2023-02-18T16:49:46;1.30;;;1.20;;
28427;SDS011;15662;49.128;8.520;2023-02-18T16:52:17;1.25;;;1.15;;
28427;SDS011;15662;49.128;8.520;2023-02-18T16:54:45;1.67;;;1.58;;
28427;SDS011;15662;49.128;8.520;2023-02-18T16:57:20;1.30;;;1.20;;
28427;SDS011;15662;49.128;8.520;2023-02-18T16:59:47;2.15;;;1.33;;
28427;SDS011;15662;49.128;8.520;2023-02-18T17:02:19;1.25;;;1.15;;
28427;SDS011;15662;49.128;8.520;2023-02-18T17:04:48;1.25;;;1.25;;
28427;SDS011;15662;49.128;8.520;2023-02-18T17:07:22;1.20;;;1.10;;
28427;SDS011;15662;49.128;8.520;2023-02-18T17:09:49;1.33;;;1.20;;
28427;SDS011;15662;49.128;8.520;2023-02-18T17:12:17;1.48;;;1.38;;
28427;SDS011;15662;49.128;8.520;2023-02-18T17:14:45;1.30;;;1.20;;
28427;SDS011;15662;49.128;8.520;2023-02-18T17:17:14;1.33;;;1.15;;
28427;SDS011;15662;49.128;8.520;2023-02-18T17:19:43;1.50;;;1.40;;
28427;SDS011;15662;49.128;8.520;2023-02-18T17:22:11;1.10;;;1.10;;
28427;SDS011;15662;49.128;8.520;2023-02-18T17:24:40;1.50;;;1.40;;
28427;SDS011;15662;49.128;8.520;2023-02-18T17:27:08;1.60;;;1.30;;
28427;SDS011;15662;49.128;8.520;2023-02-18T17:29:39;1.50;;;1.40;;
28427;SDS011;15662;49.128;8.520;2023-02-18T17:32:07;1.70;;;1.60;;
28427;SDS011;15662;49.128;8.520;2023-02-18T17:34:35;1.40;;;1.30;;
28427;SDS011;15662;49.128;8.520;2023-02-18T17:37:10;1.58;;;1.48;;
28427;SDS011;15662;49.128;8.520;2023-02-18T17:39:39;1.75;;;1.42;;
28427;SDS011;15662;49.128;8.520;2023-02-18T17:42:08;1.55;;;1.45;;
28427;SDS011;15662;49.128;8.520;2023-02-18T17:44:38;1.80;;;1.70;;
28427;SDS011;15662;49.128;8.520;2023-02-18T17:47:06;1.65;;;1.55;;
28427;SDS011;15662;49.128;8.520;2023-02-18T17:49:34;1.48;;;1.33;;
28427;SDS011;15662;49.128;8.520;2023-02-18T17:52:02;1.65;;;1.55;;
28427;SDS011;15662;49.128;8.520;2023-02-18T17:54:30;1.40;;;1.40;;
28427;SDS011;15662;49.128;8.520;2023-02-18T17:56:58;1.95;;;1.75;;
28427;SDS011;15662;49.128;8.520;2023-02-18T17:59:26;2.08;;;1.77;;
28427;SDS011;15662;49.128;8.520;2023-02-18T18:01:55;1.70;;;1.60;;
28427;SDS011;15662;49.128;8.520;2023-02-18T18:04:23;2.00;;;1.50;;
28427;SDS011;15662;49.128;8.520;2023-02-18T18:06:51;1.88;;;1.70;;
28427;SDS011;15662;49.128;8.520;2023-02-18T18:09:18;1.90;;;1.80;;
28427;SDS011;15662;49.128;8.520;2023-02-18T18:11:46;1.80;;;1.70;;
28427;SDS011;15662;49.128;8.520;2023-02-18T18:14:14;1.70;;;1.60;;
28427;SDS011;15662;49.128;8.520;2023-02-18T18:16:42;1.85;;;1.70;;
28427;SDS011;15662;49.128;8.520;2023-02-18T18:19:10;1.67;;;1.58;;
28427;SDS011;15662;49.128;8.520;2023-02-18T18:21:38;1.60;;;1.50;;
28427;SDS011;15662;49.128;8.520;2023-02-18T18:24:08;1.60;;;1.40;;
28427;SDS011;15662;49.128;8.520;2023-02-18T18:26:38;1.58;;;1.48;;
28427;SDS011;15662;49.128;8.520;2023-02-18T18:29:08;1.63;;;1.52;;
28427;SDS011;15662;49.128;8.520;2023-02-18T18:31:37;2.47;;;1.65;;
28427;SDS011;15662;49.128;8.520;2023-02-18T18:34:05;1.55;;;1.45;;
28427;SDS011;15662;49.128;8.520;2023-02-18T18:36:32;1.63;;;1.50;;
28427;SDS011;15662;49.128;8.520;2023-02-18T18:39:00;2.00;;;1.90;;
28427;SDS011;15662;49.128;8.520;2023-02-18T18:41:28;1.58;;;1.50;;
28427;SDS011;15662;49.128;8.520;2023-02-18T18:43:56;1.48;;;1.48;;
28427;SDS011;15662;49.128;8.520;2023-02-18T18:46:24;1.70;;;1.60;;
28427;SDS011;15662;49.128;8.520;2023-02-18T18:48:52;2.30;;;1.67;;